sensor_id;sensor_type;location;lat;lon;timestamp;pressure;altitude;pressure_sealevel;temperature;humidity
69060;BME280;56135;37.534;-122.308;2023-02-17T00:02:10;102018.69;;;13.10;46.56
69060;BME280;56135;37.534;-122.308;2023-02-17T00:04:36;102024.03;;;13.00;48.39
69060;BME280;56135;37.534;-122.308;2023-02-17T00:07:02;102019.59;;;12.99;47.33
69060;BME280;56135;37.534;-122.308;2023-02-17T00:09:29;102023.16;;;12.94;48.71
69060;BME280;56135;37.534;-122.308;2023-02-17T00:11:55;102023.19;;;12.78;50.21
69060;BME280;56135;37.534;-122.308;2023-02-17T00:14:21;102022.31;;;12.79;49.94
69060;BME280;56135;37.534;-122.308;2023-02-17T00:16:47;102028.53;;;12.63;49.46
69060;BME280;56135;37.534;-122.308;2023-02-17T00:19:13;102016.13;;;12.57;48.19
69060;BME280;56135;37.534;-122.308;2023-02-17T00:21:50;102020.56;;;12.55;50.53
69060;BME280;56135;37.534;-122.308;2023-02-17T00:24:17;102015.28;;;12.43;50.88
69060;BME280;56135;37.534;-122.308;2023-02-17T00:26:43;102020.59;;;12.43;50.51
69060;BME280;56135;37.534;-122.308;2023-02-17T00:29:09;102017.91;;;12.40;51.22
69060;BME280;56135;37.534;-122.308;2023-02-17T00:31:35;102017.91;;;12.21;51.48
69060;BME280;56135;37.534;-122.308;2023-02-17T00:34:02;102015.25;;;12.09;52.08
69060;BME280;56135;37.534;-122.308;2023-02-17T00:36:28;102020.53;;;12.02;52.61
69060;BME280;56135;37.534;-122.308;2023-02-17T00:38:55;102012.56;;;11.95;53.20
69060;BME280;56135;37.534;-122.308;2023-02-17T00:41:23;102022.25;;;11.94;53.66
69060;BME280;56135;37.534;-122.308;2023-02-17T00:43:49;102014.28;;;11.80;53.57
69060;BME280;56135;37.534;-122.308;2023-02-17T00:46:17;102017.78;;;11.72;53.29
69060;BME280;56135;37.534;-122.308;2023-02-17T00:48:43;102013.38;;;11.64;53.06
69060;BME280;56135;37.534;-122.308;2023-02-17T00:51:09;102019.47;;;11.51;51.02
69060;BME280;56135;37.534;-122.308;2023-02-17T00:53:36;102016.78;;;11.40;51.72
69060;BME280;56135;37.534;-122.308;2023-02-17T00:56:02;102007.94;;;11.33;54.51
69060;BME280;56135;37.534;-122.308;2023-02-17T00:58:29;102008.75;;;11.15;53.55
69060;BME280;56135;37.534;-122.308;2023-02-17T01:00:56;102016.66;;;11.08;52.76
69060;BME280;56135;37.534;-122.308;2023-02-17T01:03:23;102018.34;;;10.96;54.30
69060;BME280;56135;37.534;-122.308;2023-02-17T01:05:50;102012.97;;;10.84;56.14
69060;BME280;56135;37.534;-122.308;2023-02-17T01:08:16;102012.06;;;10.79;55.72
69060;BME280;56135;37.534;-122.308;2023-02-17T01:10:45;102003.16;;;10.64;56.19
69060;BME280;56135;37.534;-122.308;2023-02-17T01:13:12;102005.75;;;10.57;55.97
69060;BME280;56135;37.534;-122.308;2023-02-17T01:15:44;101998.63;;;10.46;57.73
69060;BME280;56135;37.534;-122.308;2023-02-17T01:18:10;102002.00;;;10.33;60.14
69060;BME280;56135;37.534;-122.308;2023-02-17T01:20:38;102004.53;;;10.22;59.96
69060;BME280;56135;37.534;-122.308;2023-02-17T01:23:06;102007.09;;;10.11;60.64
69060;BME280;56135;37.534;-122.308;2023-02-17T01:25:41;102002.59;;;9.99;62.18
69060;BME280;56135;37.534;-122.308;2023-02-17T01:28:10;102004.25;;;9.90;62.99
69060;BME280;56135;37.534;-122.308;2023-02-17T01:30:36;101999.72;;;9.78;63.51
69060;BME280;56135;37.534;-122.308;2023-02-17T01:33:02;102000.50;;;9.67;65.79
69060;BME280;56135;37.534;-122.308;2023-02-17T01:35:28;102006.47;;;9.51;69.65
69060;BME280;56135;37.534;-122.308;2023-02-17T01:37:55;102002.84;;;9.43;68.29
69060;BME280;56135;37.534;-122.308;2023-02-17T01:40:21;102001.84;;;9.31;69.79
69060;BME280;56135;37.534;-122.308;2023-02-17T01:42:47;101999.09;;;9.22;71.38
69060;BME280;56135;37.534;-122.308;2023-02-17T01:47:44;102007.56;;;8.99;75.41
69060;BME280;56135;37.534;-122.308;2023-02-17T01:50:11;101999.47;;;8.87;76.65
69060;BME280;56135;37.534;-122.308;2023-02-17T01:52:37;102010.69;;;8.74;78.78
69060;BME280;56135;37.534;-122.308;2023-02-17T01:55:07;102014.94;;;8.64;80.80
69060;BME280;56135;37.534;-122.308;2023-02-17T01:57:38;102008.59;;;8.51;82.31
69060;BME280;56135;37.534;-122.308;2023-02-17T02:00:07;102016.28;;;8.39;83.29
69060;BME280;56135;37.534;-122.308;2023-02-17T02:02:35;102017.84;;;8.29;83.97
69060;BME280;56135;37.534;-122.308;2023-02-17T02:05:01;102015.09;;;8.21;83.58
69060;BME280;56135;37.534;-122.308;2023-02-17T02:07:34;102016.66;;;8.10;84.88
69060;BME280;56135;37.534;-122.308;2023-02-17T02:10:03;102021.69;;;7.97;86.12
69060;BME280;56135;37.534;-122.308;2023-02-17T02:12:32;102025.72;;;7.78;89.11
69060;BME280;56135;37.534;-122.308;2023-02-17T02:15:12;102024.75;;;7.73;90.89
69060;BME280;56135;37.534;-122.308;2023-02-17T02:17:53;102028.09;;;7.64;93.37
69060;BME280;56135;37.534;-122.308;2023-02-17T02:20:47;102031.31;;;7.51;95.28
69060;BME280;56135;37.534;-122.308;2023-02-17T02:34:03;102022.88;;;6.85;100.00
69060;BME280;56135;37.534;-122.308;2023-02-17T02:39:54;102034.53;;;6.58;100.00
69060;BME280;56135;37.534;-122.308;2023-02-17T02:42:23;102035.25;;;6.53;100.00
69060;BME280;56135;37.534;-122.308;2023-02-17T02:44:50;102034.09;;;6.41;100.00
69060;BME280;56135;37.534;-122.308;2023-02-17T02:47:39;102035.69;;;6.34;100.00
69060;BME280;56135;37.534;-122.308;2023-02-17T02:50:10;102032.69;;;6.21;100.00
69060;BME280;56135;37.534;-122.308;2023-02-17T02:55:18;102033.22;;;6.07;100.00
69060;BME280;56135;37.534;-122.308;2023-02-17T02:57:58;102020.75;;;5.98;100.00
69060;BME280;56135;37.534;-122.308;2023-02-17T03:00:39;102031.00;;;5.91;100.00
69060;BME280;56135;37.534;-122.308;2023-02-17T03:03:22;102030.72;;;5.80;100.00
69060;BME280;56135;37.534;-122.308;2023-02-17T03:09:04;102032.06;;;5.65;100.00
69060;BME280;56135;37.534;-122.308;2023-02-17T03:11:31;102039.84;;;5.62;100.00
69060;BME280;56135;37.534;-122.308;2023-02-17T03:14:08;102038.88;;;5.59;100.00
69060;BME280;56135;37.534;-122.308;2023-02-17T03:16:36;102044.09;;;5.57;100.00
69060;BME280;56135;37.534;-122.308;2023-02-17T03:19:03;102047.50;;;5.55;100.00
69060;BME280;56135;37.534;-122.308;2023-02-17T03:21:54;102044.72;;;5.50;100.00
69060;BME280;56135;37.534;-122.308;2023-02-17T03:24:22;102045.44;;;5.44;100.00
69060;BME280;56135;37.534;-122.308;2023-02-17T03:26:48;102047.09;;;5.41;100.00
69060;BME280;56135;37.534;-122.308;2023-02-17T03:29:14;102040.81;;;5.35;100.00
69060;BME280;56135;37.534;-122.308;2023-02-17T03:31:41;102045.94;;;5.31;100.00
69060;BME280;56135;37.534;-122.308;2023-02-17T03:34:07;102052.75;;;5.26;100.00
69060;BME280;56135;37.534;-122.308;2023-02-17T03:36:34;102053.56;;;5.23;100.00
69060;BME280;56135;37.534;-122.308;2023-02-17T03:39:00;102040.34;;;5.18;100.00
69060;BME280;56135;37.534;-122.308;2023-02-17T03:41:26;102045.56;;;5.18;100.00
69060;BME280;56135;37.534;-122.308;2023-02-17T03:43:52;102042.00;;;5.16;100.00
69060;BME280;56135;37.534;-122.308;2023-02-17T03:46:19;102043.59;;;5.11;100.00
69060;BME280;56135;37.534;-122.308;2023-02-17T03:48:45;102042.56;;;5.06;100.00
69060;BME280;56135;37.534;-122.308;2023-02-17T03:51:14;102052.03;;;5.03;100.00
69060;BME280;56135;37.534;-122.308;2023-02-17T03:53:41;102048.50;;;5.00;100.00
69060;BME280;56135;37.534;-122.308;2023-02-17T03:56:08;102048.47;;;4.99;100.00
69060;BME280;56135;37.534;-122.308;2023-02-17T03:58:34;102057.06;;;4.95;100.00
69060;BME280;56135;37.534;-122.308;2023-02-17T04:01:00;102050.06;;;4.94;100.00
69060;BME280;56135;37.534;-122.308;2023-02-17T04:03:26;102047.38;;;4.92;100.00
69060;BME280;56135;37.534;-122.308;2023-02-17T04:05:53;102050.94;;;4.94;100.00
69060;BME280;56135;37.534;-122.308;2023-02-17T04:08:20;102050.94;;;4.94;100.00
69060;BME280;56135;37.534;-122.308;2023-02-17T04:10:51;102044.81;;;4.94;100.00
69060;BME280;56135;37.534;-122.308;2023-02-17T04:13:18;102047.34;;;4.91;100.00
69060;BME280;56135;37.534;-122.308;2023-02-17T04:15:44;102049.88;;;4.89;100.00
69060;BME280;56135;37.534;-122.308;2023-02-17T04:18:10;102043.72;;;4.87;100.00
69060;BME280;56135;37.534;-122.308;2023-02-17T04:20:36;102045.44;;;4.87;100.00
69060;BME280;56135;37.534;-122.308;2023-02-17T04:23:02;102047.22;;;4.88;100.00
69060;BME280;56135;37.534;-122.308;2023-02-17T04:25:28;102050.63;;;4.85;100.00
69060;BME280;56135;37.534;-122.308;2023-02-17T04:27:55;102048.84;;;4.84;100.00
69060;BME280;56135;37.534;-122.308;2023-02-17T04:30:24;102055.75;;;4.80;100.00
69060;BME280;56135;37.534;-122.308;2023-02-17T04:32:53;102060.97;;;4.80;100.00
69060;BME280;56135;37.534;-122.308;2023-02-17T04:35:19;102057.41;;;4.78;100.00
69060;BME280;56135;37.534;-122.308;2023-02-17T04:37:49;102060.81;;;4.76;100.00
69060;BME280;56135;37.534;-122.308;2023-02-17T04:40:15;102053.88;;;4.76;100.00
69060;BME280;56135;37.534;-122.308;2023-02-17T04:42:45;102059.16;;;4.78;100.00
69060;BME280;56135;37.534;-122.308;2023-02-17T04:45:12;102059.03;;;4.75;100.00
69060;BME280;56135;37.534;-122.308;2023-02-17T04:47:38;102064.25;;;4.75;100.00
69060;BME280;56135;37.534;-122.308;2023-02-17T04:50:09;102058.16;;;4.74;100.00
69060;BME280;56135;37.534;-122.308;2023-02-17T04:52:36;102057.28;;;4.74;100.00
69060;BME280;56135;37.534;-122.308;2023-02-17T04:55:02;102058.09;;;4.73;100.00
69060;BME280;56135;37.534;-122.308;2023-02-17T04:57:29;102065.09;;;4.72;100.00
69060;BME280;56135;37.534;-122.308;2023-02-17T04:59:55;102061.56;;;4.72;100.00
69060;BME280;56135;37.534;-122.308;2023-02-17T05:02:24;102059.84;;;4.72;100.00
69060;BME280;56135;37.534;-122.308;2023-02-17T05:04:52;102063.34;;;4.73;100.00
69060;BME280;56135;37.534;-122.308;2023-02-17T05:07:21;102059.03;;;4.75;100.00
69060;BME280;56135;37.534;-122.308;2023-02-17T05:10:08;102066.00;;;4.74;100.00
69060;BME280;56135;37.534;-122.308;2023-02-17T05:12:34;102074.75;;;4.75;100.00
69060;BME280;56135;37.534;-122.308;2023-02-17T05:15:00;102062.59;;;4.77;100.00
69060;BME280;56135;37.534;-122.308;2023-02-17T05:17:26;102067.84;;;4.77;100.00
69060;BME280;56135;37.534;-122.308;2023-02-17T05:19:53;102066.09;;;4.77;100.00
69060;BME280;56135;37.534;-122.308;2023-02-17T05:22:19;102062.66;;;4.78;100.00
69060;BME280;56135;37.534;-122.308;2023-02-17T05:24:45;102067.03;;;4.79;100.00
69060;BME280;56135;37.534;-122.308;2023-02-17T05:27:12;102067.91;;;4.80;100.00
69060;BME280;56135;37.534;-122.308;2023-02-17T05:29:38;102064.34;;;4.76;100.00
69060;BME280;56135;37.534;-122.308;2023-02-17T05:32:05;102064.44;;;4.79;100.00
69060;BME280;56135;37.534;-122.308;2023-02-17T05:34:31;102058.34;;;4.80;100.00
69060;BME280;56135;37.534;-122.308;2023-02-17T05:36:58;102060.06;;;4.80;100.00
69060;BME280;56135;37.534;-122.308;2023-02-17T05:39:24;102052.16;;;4.78;100.00
69060;BME280;56135;37.534;-122.308;2023-02-17T05:41:50;102060.94;;;4.79;100.00
69060;BME280;56135;37.534;-122.308;2023-02-17T05:44:16;102062.66;;;4.78;100.00
69060;BME280;56135;37.534;-122.308;2023-02-17T05:46:42;102060.97;;;4.80;100.00
69060;BME280;56135;37.534;-122.308;2023-02-17T05:49:32;102065.31;;;4.80;100.00
69060;BME280;56135;37.534;-122.308;2023-02-17T05:51:58;102059.16;;;4.78;100.00
69060;BME280;56135;37.534;-122.308;2023-02-17T05:54:24;102060.81;;;4.76;100.00
69060;BME280;56135;37.534;-122.308;2023-02-17T05:56:50;102061.66;;;4.75;100.00
69060;BME280;56135;37.534;-122.308;2023-02-17T05:59:17;102058.16;;;4.74;100.00
69060;BME280;56135;37.534;-122.308;2023-02-17T06:01:43;102061.66;;;4.75;100.00
69060;BME280;56135;37.534;-122.308;2023-02-17T06:04:15;102066.00;;;4.74;100.00
69060;BME280;56135;37.534;-122.308;2023-02-17T06:06:41;102059.91;;;4.74;100.00
69060;BME280;56135;37.534;-122.308;2023-02-17T06:09:10;102060.72;;;4.73;100.00
69060;BME280;56135;37.534;-122.308;2023-02-17T06:11:36;102065.88;;;4.70;100.00
69060;BME280;56135;37.534;-122.308;2023-02-17T06:14:02;102059.78;;;4.71;100.00
69060;BME280;56135;37.534;-122.308;2023-02-17T06:16:29;102060.63;;;4.70;100.00
69060;BME280;56135;37.534;-122.308;2023-02-17T06:18:55;102070.25;;;4.71;100.00
69060;BME280;56135;37.534;-122.308;2023-02-17T06:21:21;102064.91;;;4.67;100.00
69060;BME280;56135;37.534;-122.308;2023-02-17T06:23:47;102071.00;;;4.66;100.00
69060;BME280;56135;37.534;-122.308;2023-02-17T06:26:14;102077.97;;;4.66;100.00
69060;BME280;56135;37.534;-122.308;2023-02-17T06:28:40;102075.25;;;4.63;100.00
69060;BME280;56135;37.534;-122.308;2023-02-17T06:31:06;102075.13;;;4.60;100.00
69060;BME280;56135;37.534;-122.308;2023-02-17T06:33:33;102068.13;;;4.59;100.00
69060;BME280;56135;37.534;-122.308;2023-02-17T06:35:59;102071.63;;;4.59;100.00
69060;BME280;56135;37.534;-122.308;2023-02-17T06:38:25;102065.44;;;4.57;100.00
69060;BME280;56135;37.534;-122.308;2023-02-17T06:40:52;102068.06;;;4.57;100.00
69060;BME280;56135;37.534;-122.308;2023-02-17T06:43:19;102071.50;;;4.56;100.00
69060;BME280;56135;37.534;-122.308;2023-02-17T06:45:45;102064.53;;;4.55;100.00
69060;BME280;56135;37.534;-122.308;2023-02-17T06:48:12;102068.91;;;4.56;100.00
69060;BME280;56135;37.534;-122.308;2023-02-17T06:50:38;102065.44;;;4.57;100.00
69060;BME280;56135;37.534;-122.308;2023-02-17T06:53:04;102066.28;;;4.56;100.00
69060;BME280;56135;37.534;-122.308;2023-02-17T06:55:30;102071.59;;;4.58;100.00
69060;BME280;56135;37.534;-122.308;2023-02-17T06:57:59;102061.13;;;4.58;100.00
69060;BME280;56135;37.534;-122.308;2023-02-17T07:00:25;102058.44;;;4.56;100.00
69060;BME280;56135;37.534;-122.308;2023-02-17T07:02:51;102065.44;;;4.57;100.00
69060;BME280;56135;37.534;-122.308;2023-02-17T07:05:18;102073.22;;;4.54;100.00
69060;BME280;56135;37.534;-122.308;2023-02-17T07:07:44;102073.16;;;4.53;100.00
69060;BME280;56135;37.534;-122.308;2023-02-17T07:10:10;102069.59;;;4.50;100.00
69060;BME280;56135;37.534;-122.308;2023-02-17T07:12:37;102070.38;;;4.48;100.00
69060;BME280;56135;37.534;-122.308;2023-02-17T07:15:03;102074.69;;;4.46;100.00
69060;BME280;56135;37.534;-122.308;2023-02-17T07:17:29;102073.72;;;4.44;100.00
69060;BME280;56135;37.534;-122.308;2023-02-17T07:19:56;102075.44;;;4.42;100.00
69060;BME280;56135;37.534;-122.308;2023-02-17T07:22:22;102085.75;;;4.39;100.00
69060;BME280;56135;37.534;-122.308;2023-02-17T07:24:51;102080.47;;;4.37;100.00
69060;BME280;56135;37.534;-122.308;2023-02-17T07:27:17;102078.66;;;4.34;100.00
69060;BME280;56135;37.534;-122.308;2023-02-17T07:29:43;102075.91;;;4.30;100.00
69060;BME280;56135;37.534;-122.308;2023-02-17T07:32:10;102077.50;;;4.26;100.00
69060;BME280;56135;37.534;-122.308;2023-02-17T07:34:37;102077.41;;;4.23;100.00
69060;BME280;56135;37.534;-122.308;2023-02-17T07:37:03;102070.34;;;4.21;100.00
69060;BME280;56135;37.534;-122.308;2023-02-17T07:39:29;102074.56;;;4.17;100.00
69060;BME280;56135;37.534;-122.308;2023-02-17T07:41:55;102077.13;;;4.15;100.00
69060;BME280;56135;37.534;-122.308;2023-02-17T07:44:26;102076.13;;;4.12;100.00
69060;BME280;56135;37.534;-122.308;2023-02-17T07:46:53;102083.84;;;4.07;100.00
69060;BME280;56135;37.534;-122.308;2023-02-17T07:49:19;102079.25;;;4.01;100.00
69060;BME280;56135;37.534;-122.308;2023-02-17T07:51:45;102072.13;;;3.97;100.00
69060;BME280;56135;37.534;-122.308;2023-02-17T07:54:11;102084.16;;;3.92;100.00
69060;BME280;56135;37.534;-122.308;2023-02-17T07:56:38;102089.28;;;3.89;100.00
69060;BME280;56135;37.534;-122.308;2023-02-17T07:59:09;102085.59;;;3.84;100.00
69060;BME280;56135;37.534;-122.308;2023-02-17T08:01:36;102080.16;;;3.78;100.00
69060;BME280;56135;37.534;-122.308;2023-02-17T08:04:03;102080.00;;;3.73;100.00
69060;BME280;56135;37.534;-122.308;2023-02-17T08:06:29;102082.41;;;3.68;100.00
69060;BME280;56135;37.534;-122.308;2023-02-17T08:08:56;102082.25;;;3.64;100.00
69060;BME280;56135;37.534;-122.308;2023-02-17T08:11:41;102076.84;;;3.59;100.00
69060;BME280;56135;37.534;-122.308;2023-02-17T08:14:28;102070.66;;;3.56;100.00
69060;BME280;56135;37.534;-122.308;2023-02-17T08:16:55;102080.91;;;3.51;100.00
69060;BME280;56135;37.534;-122.308;2023-02-17T08:19:22;102085.19;;;3.49;100.00
69060;BME280;56135;37.534;-122.308;2023-02-17T08:21:48;102082.44;;;3.46;100.00
69060;BME280;56135;37.534;-122.308;2023-02-17T08:24:14;102085.84;;;3.43;100.00
69060;BME280;56135;37.534;-122.308;2023-02-17T08:26:47;102082.25;;;3.40;100.00
69060;BME280;56135;37.534;-122.308;2023-02-17T08:29:14;102083.94;;;3.39;100.00
69060;BME280;56135;37.534;-122.308;2023-02-17T08:31:40;102086.41;;;3.34;100.00
69060;BME280;56135;37.534;-122.308;2023-02-17T08:34:08;102083.63;;;3.31;100.00
69060;BME280;56135;37.534;-122.308;2023-02-17T08:36:35;102082.66;;;3.28;100.00
69060;BME280;56135;37.534;-122.308;2023-02-17T08:39:09;102069.53;;;3.26;100.00
69060;BME280;56135;37.534;-122.308;2023-02-17T08:41:36;102071.09;;;3.21;100.00
69060;BME280;56135;37.534;-122.308;2023-02-17T08:44:11;102077.94;;;3.19;100.00
69060;BME280;56135;37.534;-122.308;2023-02-17T08:46:39;102061.25;;;3.15;100.00
69060;BME280;56135;37.534;-122.308;2023-02-17T08:49:06;102065.56;;;3.13;100.00
69060;BME280;56135;37.534;-122.308;2023-02-17T08:51:32;102073.38;;;3.13;100.00
69060;BME280;56135;37.534;-122.308;2023-02-17T08:53:59;102073.34;;;3.12;100.00
69060;BME280;56135;37.534;-122.308;2023-02-17T08:56:28;102078.56;;;3.12;100.00
69060;BME280;56135;37.534;-122.308;2023-02-17T08:58:54;102068.94;;;3.11;100.00
69060;BME280;56135;37.534;-122.308;2023-02-17T09:01:21;102067.97;;;3.09;100.00
69060;BME280;56135;37.534;-122.308;2023-02-17T09:03:49;102064.44;;;3.07;100.00
69060;BME280;56135;37.534;-122.308;2023-02-17T09:06:16;102069.66;;;3.07;100.00
69060;BME280;56135;37.534;-122.308;2023-02-17T09:08:44;102067.03;;;3.07;100.00
69060;BME280;56135;37.534;-122.308;2023-02-17T09:11:11;102058.97;;;3.00;100.00
69060;BME280;56135;37.534;-122.308;2023-02-17T09:13:40;102058.03;;;2.98;100.00
69060;BME280;56135;37.534;-122.308;2023-02-17T09:16:06;102060.63;;;2.98;100.00
69060;BME280;56135;37.534;-122.308;2023-02-17T09:18:32;102058.69;;;2.94;100.00
69060;BME280;56135;37.534;-122.308;2023-02-17T09:21:03;102057.72;;;2.91;100.00
69060;BME280;56135;37.534;-122.308;2023-02-17T09:23:29;102054.19;;;2.90;100.00
69060;BME280;56135;37.534;-122.308;2023-02-17T09:26:04;102055.88;;;2.88;100.00
69060;BME280;56135;37.534;-122.308;2023-02-17T09:28:32;102055.72;;;2.85;100.00
69060;BME280;56135;37.534;-122.308;2023-02-17T09:30:59;102054.78;;;2.83;100.00
69060;BME280;56135;37.534;-122.308;2023-02-17T09:33:32;102053.88;;;2.82;100.00
69060;BME280;56135;37.534;-122.308;2023-02-17T09:35:59;102056.44;;;2.81;100.00
69060;BME280;56135;37.534;-122.308;2023-02-17T09:38:26;102045.94;;;2.79;100.00
69060;BME280;56135;37.534;-122.308;2023-02-17T09:40:52;102047.53;;;2.76;100.00
69060;BME280;56135;37.534;-122.308;2023-02-17T09:43:24;102040.47;;;2.73;100.00
69060;BME280;56135;37.534;-122.308;2023-02-17T09:46:03;102041.25;;;2.71;100.00
69060;BME280;56135;37.534;-122.308;2023-02-17T09:48:32;102039.41;;;2.68;100.00
69060;BME280;56135;37.534;-122.308;2023-02-17T09:51:07;102040.13;;;2.64;100.00
69060;BME280;56135;37.534;-122.308;2023-02-17T09:53:45;102035.72;;;2.63;100.00
69060;BME280;56135;37.534;-122.308;2023-02-17T09:56:18;102032.88;;;2.57;100.00
69060;BME280;56135;37.534;-122.308;2023-02-17T09:58:54;102036.19;;;2.53;100.00
69060;BME280;56135;37.534;-122.308;2023-02-17T10:01:28;102029.13;;;2.50;100.00
69060;BME280;56135;37.534;-122.308;2023-02-17T10:06:28;102040.38;;;2.49;100.00
69060;BME280;56135;37.534;-122.308;2023-02-17T10:11:46;102036.69;;;2.44;100.00
69060;BME280;56135;37.534;-122.308;2023-02-17T10:16:50;102033.94;;;2.41;100.00
69060;BME280;56135;37.534;-122.308;2023-02-17T10:19:33;102026.84;;;2.37;100.00
69060;BME280;56135;37.534;-122.308;2023-02-17T10:22:15;102023.97;;;2.30;100.00
69060;BME280;56135;37.534;-122.308;2023-02-17T10:24:42;102024.78;;;2.29;100.00
69060;BME280;56135;37.534;-122.308;2023-02-17T10:27:53;102022.00;;;2.25;100.00
69060;BME280;56135;37.534;-122.308;2023-02-17T10:32:27;102026.00;;;2.16;100.00
69060;BME280;56135;37.534;-122.308;2023-02-17T10:35:09;102025.03;;;2.14;100.00
69060;BME280;56135;37.534;-122.308;2023-02-17T10:40:16;102014.44;;;2.10;100.00
69060;BME280;56135;37.534;-122.308;2023-02-17T10:42:43;102013.50;;;2.09;100.00
69060;BME280;56135;37.534;-122.308;2023-02-17T10:45:30;102001.19;;;2.05;100.00
69060;BME280;56135;37.534;-122.308;2023-02-17T10:48:04;101995.84;;;2.02;100.00
69060;BME280;56135;37.534;-122.308;2023-02-17T10:50:33;101991.50;;;2.03;100.00
69060;BME280;56135;37.534;-122.308;2023-02-17T10:53:13;102000.25;;;2.03;100.00
69060;BME280;56135;37.534;-122.308;2023-02-17T10:56:00;102001.88;;;2.01;100.00
69060;BME280;56135;37.534;-122.308;2023-02-17T10:58:39;101994.69;;;1.95;100.00
69060;BME280;56135;37.534;-122.308;2023-02-17T11:01:09;101992.91;;;1.94;100.00
69060;BME280;56135;37.534;-122.308;2023-02-17T11:03:36;101991.06;;;1.92;100.00
69060;BME280;56135;37.534;-122.308;2023-02-17T11:06:25;101984.13;;;1.92;100.00
69060;BME280;56135;37.534;-122.308;2023-02-17T11:08:57;101988.41;;;1.90;100.00
69060;BME280;56135;37.534;-122.308;2023-02-17T11:11:29;101988.53;;;1.93;100.00
69060;BME280;56135;37.534;-122.308;2023-02-17T11:16:46;101982.38;;;1.91;100.00
69060;BME280;56135;37.534;-122.308;2023-02-17T11:19:27;101977.16;;;1.91;100.00
69060;BME280;56135;37.534;-122.308;2023-02-17T11:21:55;101973.63;;;1.91;100.00
69060;BME280;56135;37.534;-122.308;2023-02-17T11:24:23;101974.34;;;1.87;100.00
69060;BME280;56135;37.534;-122.308;2023-02-17T11:29:28;101967.34;;;1.86;100.00
69060;BME280;56135;37.534;-122.308;2023-02-17T11:32:06;101971.56;;;1.82;100.00
69060;BME280;56135;37.534;-122.308;2023-02-17T11:34:36;101968.72;;;1.77;100.00
69060;BME280;56135;37.534;-122.308;2023-02-17T11:37:18;101976.56;;;1.77;100.00
69060;BME280;56135;37.534;-122.308;2023-02-17T11:39:51;101974.63;;;1.73;100.00
69060;BME280;56135;37.534;-122.308;2023-02-17T11:42:29;101967.69;;;1.74;100.00
69060;BME280;56135;37.534;-122.308;2023-02-17T11:44:58;101968.50;;;1.71;100.00
69060;BME280;56135;37.534;-122.308;2023-02-17T11:50:33;101967.41;;;1.66;100.00
69060;BME280;56135;37.534;-122.308;2023-02-17T11:53:28;101963.06;;;1.66;100.00
69060;BME280;56135;37.534;-122.308;2023-02-17T12:01:37;101959.50;;;1.64;100.00
69060;BME280;56135;37.534;-122.308;2023-02-17T12:04:12;101948.13;;;1.62;100.00
69060;BME280;56135;37.534;-122.308;2023-02-17T12:06:53;101954.09;;;1.60;100.00
69060;BME280;56135;37.534;-122.308;2023-02-17T12:09:41;101948.00;;;1.59;100.00
69060;BME280;56135;37.534;-122.308;2023-02-17T12:15:30;101951.28;;;1.55;100.00
69060;BME280;56135;37.534;-122.308;2023-02-17T12:26:47;101955.09;;;1.42;100.00
69060;BME280;56135;37.534;-122.308;2023-02-17T12:30:59;101954.94;;;1.39;100.00
69060;BME280;56135;37.534;-122.308;2023-02-17T12:35:54;101939.25;;;1.38;100.00
69060;BME280;56135;37.534;-122.308;2023-02-17T12:38:26;101936.63;;;1.38;100.00
69060;BME280;56135;37.534;-122.308;2023-02-17T12:43:55;101934.78;;;1.35;100.00
69060;BME280;56135;37.534;-122.308;2023-02-17T12:46:31;101937.31;;;1.33;100.00
69060;BME280;56135;37.534;-122.308;2023-02-17T12:51:34;101937.94;;;1.28;100.00
69060;BME280;56135;37.534;-122.308;2023-02-17T12:54:05;101932.75;;;1.28;100.00
69060;BME280;56135;37.534;-122.308;2023-02-17T12:56:59;101935.34;;;1.28;100.00
69060;BME280;56135;37.534;-122.308;2023-02-17T13:02:06;101924.81;;;1.25;100.00
69060;BME280;56135;37.534;-122.308;2023-02-17T13:04:34;101931.72;;;1.24;100.00
69060;BME280;56135;37.534;-122.308;2023-02-17T13:10:06;101934.06;;;1.18;100.00
69060;BME280;56135;37.534;-122.308;2023-02-17T13:12:55;101933.16;;;1.17;100.00
69060;BME280;56135;37.534;-122.308;2023-02-17T13:15:30;101931.47;;;1.18;100.00
69060;BME280;56135;37.534;-122.308;2023-02-17T13:20:57;101933.78;;;1.12;100.00
69060;BME280;56135;37.534;-122.308;2023-02-17T13:23:39;101932.00;;;1.11;100.00
69060;BME280;56135;37.534;-122.308;2023-02-17T13:26:24;101940.66;;;1.11;100.00
69060;BME280;56135;37.534;-122.308;2023-02-17T13:28:53;101940.78;;;1.13;100.00
69060;BME280;56135;37.534;-122.308;2023-02-17T13:31:22;101938.97;;;1.12;100.00
69060;BME280;56135;37.534;-122.308;2023-02-17T13:33:53;101938.97;;;1.12;100.00
69060;BME280;56135;37.534;-122.308;2023-02-17T13:36:33;101939.09;;;1.15;100.00
69060;BME280;56135;37.534;-122.308;2023-02-17T13:39:01;101935.63;;;1.14;100.00
69060;BME280;56135;37.534;-122.308;2023-02-17T13:41:33;101930.34;;;1.13;100.00
69060;BME280;56135;37.534;-122.308;2023-02-17T13:44:50;101936.31;;;1.10;100.00
69060;BME280;56135;37.534;-122.308;2023-02-17T13:46:52;101937.19;;;1.11;100.00
69060;BME280;56135;37.534;-122.308;2023-02-17T13:49:22;101932.88;;;1.11;100.00
69060;BME280;56135;37.534;-122.308;2023-02-17T13:51:49;101939.09;;;1.15;100.00
69060;BME280;56135;37.534;-122.308;2023-02-17T13:54:19;101929.59;;;1.15;100.00